KDPG/DPG METAR and TAF weather

Enter ICAO airport designator
Station Type Date Time Source
KDPG METAR 2019/02/22 00:00 UTC NOAA

KDPG 220000Z 02014KT 25SM FEW029 BKN055 OVC080 M02/M09 A2962 RMK SH DSNT E-S VIRGA DSNT SW-NE SLP038 T10181087 11005 21021 51002 LAST


Station Type Date Time Source
KDPG Decoded METAR 2019/02/22 00:00 UTC NOAA

Dugway Proving Grounds, UT, United States (KDPG) 40-10N 112-56W 1325M
Feb 21, 2019 - 07:00 PM EST / 2019.02.22 0000 UTC
Wind: from the NNE (020 degrees) at 16 MPH (14 KT):0
Visibility: 25 mile(s):0
Sky conditions: overcast
Temperature: 28.8 F (-1.8 C)
Windchill: 17 F (-8 C):1
Dew Point: 16.3 F (-8.7 C)
Relative Humidity: 59%
Pressure (altimeter): 29.62 in. Hg (1003 hPa)
Pressure tendency: 0.01 inches (0.2 hPa) higher than three hours ago
ob: KDPG 220000Z 02014KT 25SM FEW029 BKN055 OVC080 M02/M09 A2962 RMK SH DSNT E-S VIRGA DSNT SW-NE SLP038 T10181087 11005 21021 51002 LAST
cycle: 0

Station Type Date Time Source
KDPG TAF UTC NOAA

Error!


Example: see airport list